Time;durP1;ratioP1;P1;durP2;ratioP2;P2;SDS_P1;SDS_P2;PMS_P1;PMS_P2;Temp;Humidity;BMP_temperature;BMP_pressure;BME280_temperature;BME280_humidity;BME280_pressure;Samples;Min_cycle;Max_cycle;Signal;HPM_P1;HPM_P2
2022/09/24 00:00:36;;;;;;;8.60;4.35;;;;;;;15.50;62.88;98515.94;5014197;28;20687;-61
2022/09/24 00:03:02;;;;;;;6.38;4.40;;;;;;;15.45;62.47;98505.16;5019995;28;20099;-61
2022/09/24 00:05:28;;;;;;;7.25;4.53;;;;;;;15.76;61.98;98549.59;5009238;28;20026;-62
2022/09/24 00:07:53;;;;;;;6.28;4.38;;;;;;;15.53;62.58;98512.97;5024286;28;20081;-60
2022/09/24 00:10:19;;;;;;;6.90;4.15;;;;;;;15.67;62.35;98553.25;5021143;28;20037;-61
2022/09/24 00:12:44;;;;;;;6.53;3.90;;;;;;;15.68;62.15;98540.97;5005900;28;20366;-61
2022/09/24 00:15:10;;;;;;;9.07;4.43;;;;;;;15.41;62.41;98490.81;5003402;28;20034;-61
2022/09/24 00:17:35;;;;;;;6.25;3.90;;;;;;;15.72;62.95;98547.50;5021549;28;20033;-59
2022/09/24 00:20:01;;;;;;;6.00;3.83;;;;;;;15.74;63.26;98537.69;5023134;28;20033;-62
2022/09/24 00:22:26;;;;;;;7.68;4.30;;;;;;;15.77;63.50;98537.31;5022354;28;20132;-61
2022/09/24 00:27:35;;;;;;;7.00;3.72;;;;;;;15.74;63.57;98538.47;5009995;28;20455;-60
2022/09/24 00:30:01;;;;;;;7.97;4.18;;;;;;;15.74;63.81;98533.25;5002501;28;20033;-61
2022/09/24 00:32:26;;;;;;;6.18;3.65;;;;;;;15.67;64.15;98511.34;5022225;28;20121;-59
2022/09/24 00:34:52;;;;;;;7.88;3.97;;;;;;;15.66;63.64;98524.59;5017962;28;20030;-59
2022/09/24 00:37:19;;;;;;;6.78;3.80;;;;;;;15.64;63.64;98516.13;5023029;28;20196;-62
2022/09/24 00:39:45;;;;;;;6.45;3.83;;;;;;;15.69;63.45;98524.25;5003137;28;20041;-63
2022/09/24 00:42:13;;;;;;;5.68;3.58;;;;;;;15.68;63.14;98523.44;5023413;28;20025;-60
2022/09/24 00:44:53;;;;;;;6.05;3.40;;;;;;;15.80;63.64;98509.94;5037673;28;20116;-62
2022/09/24 00:47:39;;;;;;;6.25;3.42;;;;;;;15.62;64.62;98478.78;5012587;28;20582;-61
2022/09/24 00:50:19;;;;;;;7.43;3.83;;;;;;;15.71;63.82;98496.06;4998585;28;20125;-59
2022/09/24 00:52:49;;;;;;;7.32;3.60;;;;;;;15.75;63.75;98507.84;5011597;28;20032;-60
2022/09/24 00:55:15;;;;;;;6.13;3.72;;;;;;;15.68;63.92;98496.41;5002151;28;20041;-61
2022/09/24 00:57:41;;;;;;;7.00;3.88;;;;;;;15.80;64.26;98504.69;5004456;28;20242;-60
2022/09/24 01:00:07;;;;;;;6.32;3.80;;;;;;;15.51;63.91;98465.13;5000616;28;20034;-62
2022/09/24 01:02:35;;;;;;;5.78;3.70;;;;;;;15.76;63.59;98502.41;5013600;28;20033;-61
2022/09/24 01:05:00;;;;;;;5.70;3.20;;;;;;;15.83;64.10;98509.56;5015834;28;20026;-61
2022/09/24 01:07:26;;;;;;;6.15;3.65;;;;;;;15.83;63.96;98507.75;5026071;28;20029;-60
2022/09/24 01:09:51;;;;;;;7.05;3.95;;;;;;;15.69;63.96;98496.22;5000045;28;20041;-61
2022/09/24 01:12:39;;;;;;;6.82;3.85;;;;;;;15.77;64.07;98490.16;5009114;28;20367;-61
2022/09/24 01:15:14;;;;;;;7.80;3.45;;;;;;;15.69;64.22;98492.81;5019396;28;20033;-63
2022/09/24 01:18:06;;;;;;;5.43;3.53;;;;;;;15.74;64.38;98498.34;5036649;28;20056;-63
2022/09/24 01:21:27;;;;;;;6.03;3.10;;;;;;;15.73;64.33;98494.91;5016269;28;20488;-61
2022/09/24 01:24:21;;;;;;;6.93;3.50;;;;;;;15.82;64.18;98490.38;4942911;28;20042;-61
2022/09/24 01:26:55;;;;;;;6.70;3.70;;;;;;;15.80;64.39;98497.63;4960844;28;20665;-62
2022/09/24 01:29:42;;;;;;;7.88;3.42;;;;;;;15.80;64.36;98496.81;5003464;28;20038;-59
2022/09/24 01:32:20;;;;;;;6.65;3.40;;;;;;;15.84;64.23;98493.63;5010965;28;20120;-61
2022/09/24 01:34:52;;;;;;;8.43;3.40;;;;;;;15.85;64.62;98492.66;5020857;28;20440;-59
2022/09/24 01:37:21;;;;;;;5.13;3.20;;;;;;;15.62;64.79;98458.63;4999167;28;20068;-61
2022/09/24 01:39:48;;;;;;;5.53;3.50;;;;;;;15.72;64.06;98485.41;5002523;28;20028;-59
2022/09/24 01:42:14;;;;;;;5.95;3.28;;;;;;;15.68;64.27;98489.38;5020661;28;20037;-62
2022/09/24 01:44:43;;;;;;;6.43;3.13;;;;;;;15.55;64.12;98449.88;5001266;28;20379;-60
2022/09/24 01:47:11;;;;;;;5.25;3.00;;;;;;;15.77;64.64;98474.41;5002056;28;20030;-60
2022/09/24 01:49:36;;;;;;;7.22;3.10;;;;;;;15.80;64.45;98479.28;5019597;28;20395;-59
2022/09/24 01:52:05;;;;;;;5.30;3.30;;;;;;;15.84;64.66;98479.72;5021339;28;20037;-61
2022/09/24 01:54:34;;;;;;;6.53;3.15;;;;;;;15.87;64.85;98482.81;5020130;28;20673;-60
2022/09/24 01:57:13;;;;;;;6.95;3.05;;;;;;;15.90;64.79;98479.03;5002876;28;20408;-63
2022/09/24 02:00:01;;;;;;;7.00;2.97;;;;;;;15.85;64.70;98476.94;5004305;28;20039;-61
2022/09/24 02:02:38;;;;;;;7.90;3.30;;;;;;;15.74;65.27;98457.22;5002681;28;20040;-61
2022/09/24 02:05:11;;;;;;;5.80;3.20;;;;;;;15.81;65.03;98451.25;5004916;28;20069;-61
2022/09/24 02:08:16;;;;;;;5.55;3.20;;;;;;;15.84;64.80;98458.75;5022115;28;20044;-60
2022/09/24 02:10:50;;;;;;;5.10;3.10;;;;;;;15.72;65.17;98450.53;4986420;28;20407;-59
2022/09/24 02:13:17;;;;;;;7.55;3.42;;;;;;;15.76;65.50;98459.66;5032660;28;20041;-59
2022/09/24 02:15:45;;;;;;;7.30;3.17;;;;;;;15.47;65.19;98408.03;5025426;28;20138;-59
2022/09/24 02:18:16;;;;;;;5.85;3.00;;;;;;;15.61;64.94;98443.13;5020919;28;20044;-61
2022/09/24 02:20:42;;;;;;;5.43;3.10;;;;;;;15.49;65.50;98417.34;5002396;28;20038;-60
2022/09/24 02:23:09;;;;;;;5.55;3.40;;;;;;;15.58;65.53;98426.72;5001148;28;20083;-60
2022/09/24 02:25:53;;;;;;;5.88;2.95;;;;;;;15.39;65.20;98390.63;5013004;28;20033;-61
2022/09/24 02:28:19;;;;;;;4.93;2.58;;;;;;;15.67;64.99;98422.22;5003554;28;20042;-59
2022/09/24 02:30:52;;;;;;;5.55;3.03;;;;;;;15.77;65.48;98429.84;5004492;28;20029;-61
2022/09/24 02:36:03;;;;;;;5.28;3.38;;;;;;;15.72;65.91;98419.06;5019419;28;20107;-61
2022/09/24 02:38:28;;;;;;;6.85;3.28;;;;;;;15.74;66.00;98422.34;5023298;28;20037;-60
2022/09/24 02:40:54;;;;;;;5.78;3.20;;;;;;;15.65;66.78;98431.28;5008668;28;20029;-60
2022/09/24 02:43:20;;;;;;;6.32;3.30;;;;;;;15.54;66.96;98425.47;5018453;28;20021;-60
2022/09/24 02:45:45;;;;;;;11.95;3.22;;;;;;;15.43;66.44;98420.69;5015648;28;20670;-60
2022/09/24 02:48:10;;;;;;;5.78;3.05;;;;;;;15.65;66.95;98426.84;5020021;28;20483;-62
2022/09/24 02:50:36;;;;;;;6.93;3.50;;;;;;;15.45;66.27;98389.88;5017393;28;20041;-61
2022/09/24 02:53:01;;;;;;;6.38;3.40;;;;;;;15.66;66.25;98420.59;5020035;28;20056;-59
2022/09/24 02:55:27;;;;;;;6.38;2.97;;;;;;;15.41;65.83;98370.28;5012525;28;20061;-58
2022/09/24 02:57:52;;;;;;;5.80;2.97;;;;;;;15.51;66.19;98375.25;5003274;28;20468;-63
2022/09/24 03:00:19;;;;;;;7.45;2.97;;;;;;;15.66;66.11;98411.91;5021257;28;20033;-60
2022/09/24 03:02:46;;;;;;;8.50;3.08;;;;;;;15.53;66.37;98389.81;5026958;28;20032;-61
2022/09/24 03:05:12;;;;;;;5.70;2.97;;;;;;;15.63;65.74;98418.34;5017807;28;20440;-61
2022/09/24 03:07:38;;;;;;;5.60;3.30;;;;;;;15.61;65.45;98409.84;5019958;28;20032;-62
2022/09/24 03:10:03;;;;;;;7.10;3.00;;;;;;;15.30;65.14;98368.94;5020222;28;20034;-62
2022/09/24 03:12:29;;;;;;;5.45;2.90;;;;;;;15.47;65.42;98376.59;5003614;28;20029;-64
2022/09/24 03:14:54;;;;;;;5.28;3.10;;;;;;;15.42;65.50;98353.56;5027671;28;20527;-60
2022/09/24 03:17:19;;;;;;;6.05;3.17;;;;;;;15.71;65.75;98402.50;5024858;28;20488;-62
2022/09/24 03:19:45;;;;;;;5.80;2.95;;;;;;;15.69;66.19;98396.63;5004367;28;20036;-61
2022/09/24 03:22:10;;;;;;;7.45;3.17;;;;;;;15.66;66.12;98383.91;4996292;28;20030;-63
2022/09/24 03:24:36;;;;;;;5.50;2.78;;;;;;;15.68;65.94;98389.78;5003932;28;20040;-59
2022/09/24 03:27:01;;;;;;;5.82;2.97;;;;;;;15.67;66.12;98382.91;5002919;28;20354;-61
2022/09/24 03:32:10;;;;;;;6.47;3.00;;;;;;;15.76;66.23;98392.31;5017833;28;20033;-64
2022/09/24 03:34:36;;;;;;;6.22;2.90;;;;;;;15.73;66.29;98386.59;5004264;28;20048;-61
2022/09/24 03:37:01;;;;;;;8.43;2.95;;;;;;;15.71;66.19;98388.59;5017179;28;20033;-60
2022/09/24 03:39:26;;;;;;;4.75;2.70;;;;;;;15.70;66.14;98381.75;5016912;28;20030;-59
2022/09/24 03:41:52;;;;;;;6.57;2.72;;;;;;;15.66;66.06;98375.22;5019794;28;20579;-60
2022/09/24 03:44:17;;;;;;;6.85;3.30;;;;;;;15.69;66.55;98374.88;5000511;28;20033;-59
2022/09/24 03:46:42;;;;;;;6.35;3.38;;;;;;;15.64;66.70;98377.22;5017674;28;20025;-61
2022/09/24 03:49:08;;;;;;;7.05;3.30;;;;;;;15.51;67.62;98386.53;5035600;28;20468;-60
2022/09/24 03:51:33;;;;;;;7.47;3.10;;;;;;;15.40;68.23;98376.50;4999919;28;20054;-60
2022/09/24 03:53:58;;;;;;;5.97;2.75;;;;;;;15.54;67.80;98382.75;5014554;28;20555;-60
2022/09/24 03:56:24;;;;;;;5.25;2.85;;;;;;;15.59;67.81;98375.16;5017324;28;20484;-59
2022/09/24 03:58:49;;;;;;;6.35;2.90;;;;;;;15.57;67.91;98371.91;5020188;28;20032;-59
2022/09/24 04:01:19;;;;;;;6.15;3.20;;;;;;;15.49;67.31;98359.69;4994460;28;20409;-61
2022/09/24 04:03:45;;;;;;;5.55;3.30;;;;;;;15.46;67.50;98361.88;5020679;28;20025;-61
2022/09/24 04:06:11;;;;;;;6.45;2.95;;;;;;;15.45;67.32;98353.19;5008221;28;20741;-60
2022/09/24 04:08:36;;;;;;;7.80;2.65;;;;;;;15.61;67.47;98373.16;5019822;28;20036;-60
2022/09/24 04:11:02;;;;;;;6.70;2.97;;;;;;;15.33;67.43;98331.91;5006423;28;20460;-59
2022/09/24 04:13:27;;;;;;;5.88;3.17;;;;;;;15.38;67.19;98345.25;5019095;28;20029;-60
2022/09/24 04:15:53;;;;;;;5.80;2.92;;;;;;;15.55;66.82;98358.16;5004510;28;20088;-60
2022/09/24 04:18:19;;;;;;;5.53;2.88;;;;;;;15.70;66.71;98368.63;5029084;28;20507;-59
2022/09/24 04:20:45;;;;;;;8.38;2.80;;;;;;;15.70;67.05;98358.97;5003658;28;20030;-59
2022/09/24 04:23:11;;;;;;;7.30;3.05;;;;;;;15.45;67.12;98311.28;5028897;28;20450;-59
2022/09/24 04:25:36;;;;;;;5.55;2.97;;;;;;;15.56;67.71;98355.34;5021821;28;20022;-59
2022/09/24 04:28:04;;;;;;;7.07;3.10;;;;;;;15.40;68.34;98342.44;5001563;28;20029;-59
2022/09/24 04:30:30;;;;;;;7.28;3.10;;;;;;;15.34;67.92;98335.34;5017140;28;20760;-60
2022/09/24 04:32:59;;;;;;;5.35;2.85;;;;;;;15.47;67.92;98347.78;5011260;28;20551;-61
2022/09/24 04:35:24;;;;;;;5.53;3.15;;;;;;;15.57;66.54;98356.19;5021041;28;20104;-62
2022/09/24 04:37:49;;;;;;;6.15;2.92;;;;;;;15.67;66.04;98348.03;5032909;28;20136;-61
2022/09/24 04:40:16;;;;;;;6.85;3.42;;;;;;;15.50;66.69;98329.91;5025437;28;20101;-60
2022/09/24 04:42:43;;;;;;;5.82;3.35;;;;;;;15.56;67.51;98351.94;5006786;28;20033;-61
2022/09/24 04:45:10;;;;;;;5.82;3.30;;;;;;;15.27;67.93;98321.34;5007545;28;20044;-62
2022/09/24 04:47:39;;;;;;;7.68;3.65;;;;;;;15.46;68.03;98359.25;5007403;28;20423;-60
2022/09/24 04:50:05;;;;;;;;;;;;;;;15.36;67.98;98359.53;5020880;28;20079;-60
2022/09/24 04:52:32;;;;;;;6.35;3.75;;;;;;;15.37;67.77;98363.78;5019564;28;20548;-61
2022/09/24 04:54:58;;;;;;;5.72;3.20;;;;;;;15.41;67.36;98372.91;5005447;28;20017;-61
2022/09/24 04:57:24;;;;;;;6.32;3.40;;;;;;;15.44;66.88;98369.09;5007409;28;20499;-60
2022/09/24 04:59:49;;;;;;;7.88;3.10;;;;;;;15.51;66.60;98368.19;5001492;28;20037;-61
2022/09/24 05:02:15;;;;;;;8.82;3.10;;;;;;;15.58;66.66;98374.31;5013180;28;20961;-61
2022/09/24 05:04:42;;;;;;;6.07;2.72;;;;;;;15.50;66.45;98365.78;5027554;28;20103;-60
2022/09/24 05:07:07;;;;;;;7.45;3.28;;;;;;;15.57;66.69;98371.91;5020227;28;20021;-62
2022/09/24 05:09:33;;;;;;;5.78;3.10;;;;;;;15.38;66.56;98352.31;5021119;28;20038;-60
2022/09/24 05:11:59;;;;;;;6.85;3.30;;;;;;;15.20;66.38;98329.09;5021159;28;20417;-60
2022/09/24 05:14:25;;;;;;;5.72;3.13;;;;;;;15.48;67.58;98359.88;5019498;28;20037;-61
2022/09/24 05:16:50;;;;;;;5.88;3.47;;;;;;;15.50;67.55;98363.16;5007882;28;20063;-62
2022/09/24 05:19:15;;;;;;;5.53;3.03;;;;;;;15.41;67.65;98356.38;5004272;28;20601;-63
2022/09/24 05:21:41;;;;;;;7.07;3.25;;;;;;;15.43;67.54;98357.00;5022366;28;20033;-61
2022/09/24 05:24:06;;;;;;;7.72;3.42;;;;;;;15.17;66.49;98316.38;5020433;28;20737;-61
2022/09/24 05:29:16;;;;;;;7.22;3.38;;;;;;;15.41;66.84;98362.44;5012846;28;20040;-60
2022/09/24 05:31:41;;;;;;;6.05;3.50;;;;;;;15.51;68.39;98364.75;5020860;28;20038;-61
2022/09/24 05:34:06;;;;;;;9.52;3.28;;;;;;;15.51;67.96;98370.00;5019487;28;20030;-61
2022/09/24 05:36:32;;;;;;;6.50;3.38;;;;;;;15.55;67.90;98364.22;5004970;28;20554;-59
2022/09/24 05:38:57;;;;;;;7.63;3.47;;;;;;;15.55;67.85;98363.38;5019949;28;20041;-60
2022/09/24 05:41:23;;;;;;;5.10;2.95;;;;;;;15.01;68.33;98327.03;5017889;28;20030;-62
2022/09/24 05:43:48;;;;;;;6.55;2.90;;;;;;;14.96;67.99;98336.22;5006715;28;20613;-64
2022/09/24 05:46:14;;;;;;;5.03;2.83;;;;;;;15.05;67.75;98336.16;5021442;28;20476;-60
2022/09/24 05:48:39;;;;;;;6.70;3.20;;;;;;;15.40;67.53;98381.75;5017110;28;20026;-60
2022/09/24 05:51:05;;;;;;;10.40;3.53;;;;;;;15.38;66.91;98374.06;5021310;28;20033;-59
2022/09/24 05:53:31;;;;;;;11.73;3.40;;;;;;;15.39;67.23;98388.00;5000723;28;20032;-58
2022/09/24 05:55:57;;;;;;;8.82;3.58;;;;;;;15.45;67.91;98389.06;5019028;28;20480;-60
2022/09/24 05:58:23;;;;;;;9.40;3.15;;;;;;;15.19;67.27;98351.06;5020550;28;20590;-61
2022/09/24 06:00:52;;;;;;;9.32;3.10;;;;;;;15.41;67.57;98401.72;5016937;28;20325;-60
2022/09/24 06:03:18;;;;;;;9.60;3.10;;;;;;;15.32;67.19;98385.28;4975273;28;20302;-61
2022/09/24 06:05:48;;;;;;;5.60;3.13;;;;;;;15.41;67.27;98393.88;5015681;28;20164;-61
2022/09/24 06:08:15;;;;;;;6.80;3.63;;;;;;;15.38;67.93;98391.59;5017574;28;20049;-60
2022/09/24 06:10:42;;;;;;;8.27;3.88;;;;;;;15.52;67.94;98395.22;5000977;28;20064;-61
2022/09/24 06:13:10;;;;;;;7.28;3.83;;;;;;;15.51;67.67;98388.34;5016514;28;20026;-61
2022/09/24 06:15:37;;;;;;;11.73;4.53;;;;;;;15.58;68.01;98386.63;5018499;28;20037;-60
2022/09/24 06:18:04;;;;;;;6.35;3.83;;;;;;;15.41;68.60;98377.34;5016166;28;20128;-61
2022/09/24 06:20:31;;;;;;;9.85;4.20;;;;;;;15.47;68.81;98389.72;5016661;28;20058;-60
2022/09/24 06:22:56;;;;;;;7.15;3.90;;;;;;;15.42;68.83;98386.81;5002681;28;20025;-61
2022/09/24 06:25:23;;;;;;;8.75;4.30;;;;;;;15.45;68.70;98399.56;5019898;28;20033;-61
2022/09/24 06:27:59;;;;;;;6.68;4.60;;;;;;;15.47;68.85;98397.56;5030984;28;20488;-61
2022/09/24 06:30:26;;;;;;;6.80;3.63;;;;;;;15.31;68.35;98401.16;5019786;28;20520;-60
2022/09/24 06:32:52;;;;;;;6.85;4.00;;;;;;;15.35;68.35;98405.03;5004245;28;20057;-59
2022/09/24 06:35:17;;;;;;;8.50;4.40;;;;;;;15.24;69.12;98398.47;5035781;28;20439;-62
2022/09/24 06:37:42;;;;;;;8.80;4.25;;;;;;;15.23;70.72;98420.41;5016589;28;20307;-61
2022/09/24 06:40:08;;;;;;;8.13;4.35;;;;;;;15.13;71.54;98401.50;5020376;28;20048;-60
2022/09/24 06:42:35;;;;;;;7.82;4.57;;;;;;;15.01;72.48;98384.63;5018757;28;20049;-61
2022/09/24 06:45:00;;;;;;;7.28;4.47;;;;;;;14.85;72.40;98383.78;5024893;28;20033;-60
2022/09/24 06:47:25;;;;;;;7.65;4.55;;;;;;;15.19;71.23;98422.56;4995762;28;20040;-62
2022/09/24 06:49:51;;;;;;;9.50;5.20;;;;;;;15.24;72.79;98418.59;5018601;28;20037;-59
2022/09/24 06:52:16;;;;;;;9.63;5.07;;;;;;;15.34;73.56;98424.41;4998954;28;20040;-59
2022/09/24 06:54:42;;;;;;;6.97;4.82;;;;;;;15.08;72.53;98385.56;4999867;28;20778;-61
2022/09/24 06:57:07;;;;;;;9.07;5.70;;;;;;;15.35;73.11;98429.47;5016876;28;20037;-60
2022/09/24 06:59:32;;;;;;;9.85;5.20;;;;;;;15.33;74.14;98414.91;5016196;28;20799;-60
2022/09/24 07:01:58;;;;;;;8.68;4.80;;;;;;;15.40;72.63;98413.19;5016578;28;20031;-61
2022/09/24 07:04:24;;;;;;;8.00;5.30;;;;;;;15.48;73.17;98420.97;4999328;28;20136;-60
2022/09/24 07:09:35;;;;;;;8.38;4.93;;;;;;;15.37;74.68;98429.28;5017926;28;20079;-60
2022/09/24 07:12:04;;;;;;;6.35;4.35;;;;;;;15.15;75.17;98441.41;5016246;28;20021;-59
2022/09/24 07:14:29;;;;;;;11.73;5.78;;;;;;;15.07;75.41;98431.84;5018380;28;20397;-60
2022/09/24 07:16:55;;;;;;;9.05;5.43;;;;;;;15.17;76.82;98434.22;5019126;28;20042;-62
2022/09/24 07:19:20;;;;;;;9.63;5.80;;;;;;;15.24;76.81;98452.66;5017356;28;20029;-59
2022/09/24 07:21:45;;;;;;;9.13;5.63;;;;;;;15.24;78.39;98447.41;4990666;28;20414;-60
2022/09/24 07:24:11;;;;;;;9.00;5.18;;;;;;;15.12;78.98;98450.47;5015530;28;20108;-64
2022/09/24 07:26:36;;;;;;;7.90;5.13;;;;;;;15.17;80.20;98455.97;5018162;28;20034;-61
2022/09/24 07:29:02;;;;;;;9.07;5.32;;;;;;;15.12;80.35;98447.03;4997151;28;20661;-60
2022/09/24 07:31:28;;;;;;;8.52;5.55;;;;;;;15.23;80.86;98458.88;5003006;28;20471;-61
2022/09/24 07:33:54;;;;;;;11.13;6.50;;;;;;;15.14;79.65;98474.66;5004807;28;20069;-60
2022/09/24 07:36:19;;;;;;;9.82;6.80;;;;;;;15.03;79.83;98472.47;5023316;28;20040;-62
2022/09/24 07:38:45;;;;;;;13.13;6.80;;;;;;;14.97;79.53;98466.13;5030146;28;20091;-60
2022/09/24 07:41:10;;;;;;;9.55;6.70;;;;;;;15.04;78.43;98473.28;4999332;28;20033;-63
2022/09/24 07:43:36;;;;;;;11.43;7.30;;;;;;;15.02;78.05;98475.25;5014583;28;20108;-62
2022/09/24 07:46:01;;;;;;;12.02;6.20;;;;;;;14.87;78.32;98444.63;5008888;28;20056;-63
2022/09/24 07:48:27;;;;;;;10.90;6.47;;;;;;;14.99;79.85;98473.81;5018515;28;20033;-61
2022/09/24 07:50:52;;;;;;;14.38;7.00;;;;;;;14.75;83.19;98473.03;5021150;28;20040;-61
2022/09/24 07:53:18;;;;;;;10.15;6.72;;;;;;;14.75;83.30;98478.25;5021406;28;20040;-62
2022/09/24 07:55:44;;;;;;;10.65;7.20;;;;;;;14.58;84.98;98469.72;4997299;28;20037;-61
2022/09/24 07:58:13;;;;;;;11.23;7.45;;;;;;;14.77;84.78;98481.50;4997778;28;20144;-61
2022/09/24 08:00:39;;;;;;;12.95;7.03;;;;;;;14.91;85.25;98489.59;5013674;28;20034;-62
2022/09/24 08:03:06;;;;;;;10.90;7.47;;;;;;;14.98;85.26;98474.81;5014326;28;20589;-62
2022/09/24 08:05:32;;;;;;;9.93;7.15;;;;;;;15.11;86.75;98490.75;5013677;28;20509;-61
2022/09/24 08:07:58;;;;;;;12.40;8.07;;;;;;;14.96;82.11;98479.41;5012021;28;20105;-61
2022/09/24 08:10:25;;;;;;;12.30;7.88;;;;;;;15.02;83.23;98480.50;5019612;28;20029;-60
2022/09/24 08:12:51;;;;;;;12.38;7.63;;;;;;;14.91;84.15;98486.97;4993807;28;20621;-61
2022/09/24 08:15:17;;;;;;;11.27;7.10;;;;;;;14.88;83.56;98490.75;5017566;28;20025;-61
2022/09/24 08:17:43;;;;;;;11.88;8.10;;;;;;;14.67;81.47;98441.66;5016735;28;20516;-62
2022/09/24 08:20:09;;;;;;;13.43;8.32;;;;;;;14.58;82.84;98490.63;5020481;28;20053;-61
2022/09/24 08:22:35;;;;;;;13.65;8.43;;;;;;;14.37;82.03;98482.56;4999691;28;20188;-60
2022/09/24 08:25:02;;;;;;;11.32;7.93;;;;;;;14.51;83.75;98492.28;5019284;28;20029;-61
2022/09/24 08:27:27;;;;;;;18.95;8.60;;;;;;;14.45;83.22;98486.91;5013155;28;20029;-61
2022/09/24 08:29:53;;;;;;;11.85;8.00;;;;;;;14.60;83.85;98486.03;5002197;28;20037;-59
2022/09/24 08:32:18;;;;;;;11.55;8.20;;;;;;;14.65;83.00;98489.94;5018860;28;20512;-60
2022/09/24 08:34:44;;;;;;;13.13;8.15;;;;;;;14.82;84.28;98491.44;5017030;28;20514;-60
2022/09/24 08:37:10;;;;;;;14.60;8.05;;;;;;;14.94;84.74;98490.03;5003013;28;20035;-59
2022/09/24 08:39:35;;;;;;;10.65;7.80;;;;;;;15.01;84.00;98500.63;5018176;28;20033;-60
2022/09/24 08:42:14;;;;;;;10.40;7.82;;;;;;;15.05;85.33;98491.44;5020591;28;20021;-59
2022/09/24 08:47:53;;;;;;;11.73;7.65;;;;;;;14.90;83.63;98499.25;5020404;28;20565;-61
2022/09/24 08:50:25;;;;;;;12.00;8.30;;;;;;;15.02;83.64;98510.09;5036268;28;20033;-62
2022/09/24 08:53:22;;;;;;;12.57;8.38;;;;;;;15.06;85.11;98500.09;5019252;28;20040;-63
2022/09/24 08:55:51;;;;;;;11.43;8.15;;;;;;;15.11;84.41;98503.84;5021131;28;20079;-63
2022/09/24 08:58:50;;;;;;;13.35;8.57;;;;;;;15.08;79.46;98501.56;5001218;28;20029;-61
2022/09/24 09:01:28;;;;;;;12.55;8.98;;;;;;;15.12;83.28;98502.84;5026962;28;20041;-61
2022/09/24 09:03:57;;;;;;;12.65;8.77;;;;;;;15.04;83.51;98507.31;5021935;28;20516;-61
2022/09/24 09:06:47;;;;;;;14.63;8.45;;;;;;;15.07;83.50;98510.41;5017409;28;20033;-62
2022/09/24 09:09:18;;;;;;;11.60;8.60;;;;;;;15.09;82.96;98512.84;5012796;28;20038;-62
2022/09/24 09:11:46;;;;;;;10.85;7.57;;;;;;;15.10;80.52;98517.91;5017189;28;20392;-61
2022/09/24 09:14:12;;;;;;;11.82;8.30;;;;;;;14.96;83.12;98521.28;4982181;28;20033;-61
2022/09/24 09:16:40;;;;;;;11.65;8.13;;;;;;;15.06;84.63;98518.44;4992467;28;20446;-62
2022/09/24 09:19:11;;;;;;;10.18;8.30;;;;;;;15.02;84.58;98514.53;5021113;28;20480;-61
2022/09/24 09:21:45;;;;;;;12.40;8.15;;;;;;;14.74;85.60;98481.84;4995794;28;21222;-61
2022/09/24 09:24:16;;;;;;;13.63;9.05;;;;;;;14.85;86.81;98535.59;5009374;28;20095;-62
2022/09/24 09:26:46;;;;;;;12.20;9.05;;;;;;;14.74;87.81;98542.03;5002542;28;20620;-61
2022/09/24 09:29:11;;;;;;;12.32;8.65;;;;;;;14.86;87.71;98536.41;5005210;28;20287;-62
2022/09/24 09:32:01;;;;;;;12.48;8.82;;;;;;;14.74;88.55;98539.44;5013159;28;20758;-60
2022/09/24 09:35:20;;;;;;;12.77;8.68;;;;;;;14.85;87.73;98535.59;5012861;28;20030;-62
2022/09/24 09:37:58;;;;;;;14.73;9.52;;;;;;;14.74;89.48;98533.38;4957775;28;20034;-60
2022/09/24 09:40:36;;;;;;;15.27;9.75;;;;;;;14.79;89.87;98525.84;4979903;28;20032;-61
2022/09/24 09:43:06;;;;;;;13.57;8.57;;;;;;;14.72;86.05;98524.91;5006161;28;20037;-60
2022/09/24 09:45:38;;;;;;;13.52;9.70;;;;;;;14.56;86.84;98528.38;5014095;28;20834;-62
2022/09/24 09:48:05;;;;;;;14.90;9.63;;;;;;;14.48;87.73;98520.59;5025048;28;20056;-60
2022/09/24 09:50:37;;;;;;;14.80;10.18;;;;;;;14.45;88.62;98529.59;5001031;28;20029;-60
2022/09/24 09:53:04;;;;;;;13.10;9.70;;;;;;;14.39;89.02;98519.81;4989637;28;20077;-60
2022/09/24 09:55:36;;;;;;;14.68;10.15;;;;;;;14.40;89.79;98532.72;4998495;28;20025;-59
2022/09/24 09:58:13;;;;;;;14.32;9.48;;;;;;;14.36;90.65;98535.84;5000730;28;20367;-61
2022/09/24 10:00:40;;;;;;;17.25;10.30;;;;;;;14.04;90.21;98535.00;5016460;28;20026;-60
2022/09/24 10:03:06;;;;;;;13.32;9.95;;;;;;;14.11;92.00;98538.56;5008324;28;20030;-60
2022/09/24 10:05:32;;;;;;;15.02;9.77;;;;;;;14.18;90.63;98542.16;5009218;28;20040;-61
2022/09/24 10:07:57;;;;;;;14.63;10.00;;;;;;;14.08;92.50;98546.75;4998296;28;20038;-58
2022/09/24 10:10:25;;;;;;;13.48;9.57;;;;;;;14.29;89.88;98550.59;4991258;28;20804;-59
2022/09/24 10:13:09;;;;;;;15.85;10.45;;;;;;;14.34;91.28;98543.84;5010968;28;20026;-60
2022/09/24 10:15:47;;;;;;;15.80;10.27;;;;;;;13.91;91.66;98532.06;5012543;28;20029;-60
2022/09/24 10:18:13;;;;;;;13.98;9.40;;;;;;;13.69;90.19;98525.78;4975154;28;20041;-61
2022/09/24 10:20:39;;;;;;;13.20;9.73;;;;;;;13.64;90.88;98528.91;5015495;28;20026;-61
2022/09/24 10:23:07;;;;;;;16.60;10.85;;;;;;;13.60;93.70;98531.03;5012582;28;20030;-60
2022/09/24 10:25:35;;;;;;;16.50;10.60;;;;;;;13.41;94.28;98493.00;5013001;28;20030;-61
2022/09/24 10:30:59;;;;;;;14.30;10.30;;;;;;;13.46;92.20;98516.03;5015942;28;20080;-60
2022/09/24 10:33:26;;;;;;;14.30;10.02;;;;;;;13.24;90.60;98500.00;5018814;28;20400;-60
2022/09/24 10:36:20;;;;;;;15.95;11.65;;;;;;;13.24;93.67;98500.00;5018818;28;20037;-59
2022/09/24 10:38:45;;;;;;;17.02;11.45;;;;;;;12.75;95.52;98447.81;5018890;28;20040;-60
2022/09/24 10:41:25;;;;;;;24.42;12.98;;;;;;;13.20;99.33;98508.34;5002406;28;20029;-61
2022/09/24 10:43:52;;;;;;;16.25;11.68;;;;;;;13.31;98.13;98499.41;4947878;28;21501;-63
2022/09/24 10:46:44;;;;;;;15.75;11.60;;;;;;;13.21;98.38;98500.31;5017013;28;20041;-60
2022/09/24 10:49:32;;;;;;;16.92;11.75;;;;;;;13.09;98.47;98493.84;5015838;28;20106;-61
2022/09/24 10:52:35;;;;;;;16.73;11.18;;;;;;;13.05;98.71;98492.50;5017354;28;20045;-59
2022/09/24 10:55:20;;;;;;;15.40;11.23;;;;;;;13.09;98.80;98491.22;5034588;28;20026;-59
2022/09/24 10:58:24;;;;;;;17.83;12.10;;;;;;;12.92;97.58;98492.19;5028229;28;20439;-60
2022/09/24 11:00:55;;;;;;;16.10;11.85;;;;;;;12.97;100.00;98488.09;5029166;28;20497;-60
2022/09/24 11:03:41;;;;;;;17.98;11.15;;;;;;;13.02;100.00;98487.63;5023056;28;20034;-59
2022/09/24 11:06:25;;;;;;;17.42;12.55;;;;;;;13.05;100.00;98492.50;5015886;28;20029;-59
2022/09/24 11:09:29;;;;;;;16.38;11.75;;;;;;;12.93;100.00;98488.59;5029446;28;20025;-59
2022/09/24 11:12:00;;;;;;;16.88;12.95;;;;;;;12.96;100.00;98490.88;5011108;28;20030;-60
2022/09/24 11:14:55;;;;;;;18.15;12.98;;;;;;;12.87;100.00;98479.63;5010417;28;20061;-62
2022/09/24 11:17:30;;;;;;;18.05;13.25;;;;;;;12.55;100.00;98447.31;4988074;28;20064;-59
2022/09/24 11:19:56;;;;;;;15.63;10.98;;;;;;;12.77;100.00;98492.81;5029380;28;20037;-58
2022/09/24 11:22:27;;;;;;;16.50;11.93;;;;;;;12.74;100.00;98495.78;5012553;28;20041;-60
2022/09/24 11:25:28;;;;;;;17.85;13.23;;;;;;;12.35;100.00;98436.34;5016086;28;20029;-57
2022/09/24 11:28:06;;;;;;;19.27;12.77;;;;;;;12.38;100.00;98433.44;4952395;28;20037;-57
2022/09/24 11:30:38;;;;;;;18.50;13.15;;;;;;;12.82;100.00;98479.31;5028730;28;20118;-57
2022/09/24 11:33:26;;;;;;;18.13;13.90;;;;;;;12.72;100.00;98487.25;5010783;28;20041;-57
2022/09/24 11:36:14;;;;;;;20.63;13.10;;;;;;;12.68;100.00;98473.72;5002869;28;20088;-58
2022/09/24 11:39:03;;;;;;;20.42;13.70;;;;;;;12.74;100.00;98474.06;5019588;28;20041;-57
2022/09/24 11:41:49;;;;;;;18.70;13.63;;;;;;;12.72;100.00;98473.41;4985970;28;20041;-58
2022/09/24 11:44:53;;;;;;;19.88;12.77;;;;;;;12.59;100.00;98453.81;5015939;28;20033;-58
2022/09/24 11:47:25;;;;;;;16.48;12.75;;;;;;;12.73;100.00;98465.44;5012056;28;20041;-57
2022/09/24 11:50:28;;;;;;;18.33;13.40;;;;;;;12.72;100.00;98462.97;5018223;28;20582;-57
2022/09/24 11:53:03;;;;;;;18.02;13.40;;;;;;;12.71;100.00;98467.38;5018541;28;20029;-57
2022/09/24 11:55:43;;;;;;;18.63;12.50;;;;;;;12.67;100.00;98459.06;5020082;28;20080;-57
2022/09/24 11:58:08;;;;;;;18.95;13.75;;;;;;;12.73;100.00;98459.41;5015287;28;20049;-57
2022/09/24 12:00:39;;;;;;;18.13;13.05;;;;;;;12.71;100.00;98464.78;5017642;28;20029;-58
2022/09/24 12:03:17;;;;;;;19.60;13.98;;;;;;;12.73;100.00;98469.84;5017080;28;20118;-56